FDX6072 ZGGG-LFPG
Flight info
| Callsign | FDX6072 |
|---|---|
| Flight time | N/A |
| Altitude | 32100 |
| Route | AGVIL9 AGVIL W24 OSNOV G586 QP B330 ELKAL W179 IGNAK/K0922S1010 W179 WFX/K0924S0980 W179 OMBON Y1 AKAGI/K0907S1040 Y1 SADAN W186 KAMUD/K0891F340 L141 TISIB L163 SR N193 OGOLI T898 NUHEF/K0889F360 T898 DARVA/N0480F360 B476 METKA L88 RASAM N199 LUSAL N319 ADEKI N644 TETRO M10 SARPI UN37 TBN UM11 CRM UM688 EKSUK UL852 VAXEB/N0485F380 UL852 NEGEM T746 ARGES DCT DEGET DCT BEGLA DCT DEXIT DCT INBED DCT BOMBI DCT RUDUS DCT OBIGA DCT NOSPA DCT BITBU DCT DIK UN857 TOLVU/N0477F390 DCT RAPOR DCT VEDUS |
| Aircraft | B77L/H-SDE1E2E3FGHIJ2J3J4J5M1RWXY/LB1D1 |
Departure
| Time | 2026-05-04 13:16 |
|---|---|
| Airport | Guangzhou Baiyun International Airport (ZGGG) |
Arrival
| Time | N/A |
|---|---|
| Airport | Charles de Gaulle International Airport (LFPG) |
| Time | Latitude | Longitude | Altitude | Speed | Heading |
|---|---|---|---|---|---|
| 2026-05-04 12:21 | 23.40318 | 113.32095 | 60 ft | 0 kts | 284° |
| 2026-05-04 12:59 | 23.40318 | 113.32096 | 59 ft | 1 kts | 284° |
| 2026-05-04 12:59 | 23.40315 | 113.32111 | 59 ft | 2 kts | 284° |
| 2026-05-04 13:00 | 23.40312 | 113.32121 | 59 ft | 2 kts | 283° |
| 2026-05-04 13:00 | 23.40311 | 113.32137 | 59 ft | 2 kts | 264° |
| 2026-05-04 13:00 | 23.40313 | 113.32153 | 59 ft | 2 kts | 248° |
| 2026-05-04 13:00 | 23.40320 | 113.32168 | 59 ft | 2 kts | 233° |
| 2026-05-04 13:01 | 23.40331 | 113.32179 | 59 ft | 2 kts | 217° |
| 2026-05-04 13:01 | 23.40343 | 113.32188 | 59 ft | 2 kts | 201° |
| 2026-05-04 13:01 | 23.40351 | 113.32191 | 59 ft | 1 kts | 193° |
| 2026-05-04 13:01 | 23.40354 | 113.32192 | 59 ft | 0 kts | 193° |
| 2026-05-04 13:02 | 23.40353 | 113.32192 | 59 ft | 0 kts | 193° |
| 2026-05-04 13:05 | 23.40351 | 113.32191 | 59 ft | 1 kts | 193° |
| 2026-05-04 13:05 | 23.40341 | 113.32188 | 59 ft | 1 kts | 193° |
| 2026-05-04 13:06 | 23.40330 | 113.32185 | 59 ft | 2 kts | 193° |
| 2026-05-04 13:06 | 23.40304 | 113.32179 | 59 ft | 5 kts | 193° |
| 2026-05-04 13:06 | 23.40249 | 113.32164 | 59 ft | 9 kts | 194° |
| 2026-05-04 13:06 | 23.40189 | 113.32138 | 59 ft | 10 kts | 223° |
| 2026-05-04 13:07 | 23.40179 | 113.32059 | 59 ft | 11 kts | 282° |
| 2026-05-04 13:07 | 23.40199 | 113.31971 | 59 ft | 12 kts | 284° |
| 2026-05-04 13:07 | 23.40210 | 113.31883 | 59 ft | 10 kts | 251° |
| 2026-05-04 13:07 | 23.40151 | 113.31837 | 59 ft | 11 kts | 197° |
| 2026-05-04 13:08 | 23.40065 | 113.31812 | 59 ft | 13 kts | 194° |
| 2026-05-04 13:08 | 23.39965 | 113.31786 | 59 ft | 15 kts | 194° |
| 2026-05-04 13:08 | 23.39853 | 113.31755 | 59 ft | 17 kts | 194° |
| 2026-05-04 13:08 | 23.39738 | 113.31724 | 59 ft | 16 kts | 194° |
| 2026-05-04 13:09 | 23.39622 | 113.31693 | 59 ft | 17 kts | 194° |
| 2026-05-04 13:09 | 23.39492 | 113.31658 | 59 ft | 17 kts | 194° |
| 2026-05-04 13:09 | 23.39363 | 113.31622 | 59 ft | 17 kts | 194° |
| 2026-05-04 13:09 | 23.39243 | 113.31590 | 59 ft | 17 kts | 194° |
| 2026-05-04 13:10 | 23.39121 | 113.31557 | 59 ft | 17 kts | 194° |
| 2026-05-04 13:10 | 23.39000 | 113.31524 | 59 ft | 18 kts | 194° |
| 2026-05-04 13:10 | 23.38876 | 113.31490 | 59 ft | 18 kts | 194° |
| 2026-05-04 13:10 | 23.38737 | 113.31453 | 59 ft | 23 kts | 194° |
| 2026-05-04 13:11 | 23.38584 | 113.31412 | 59 ft | 21 kts | 193° |
| 2026-05-04 13:11 | 23.38450 | 113.31377 | 59 ft | 18 kts | 193° |
| 2026-05-04 13:11 | 23.38332 | 113.31345 | 59 ft | 17 kts | 194° |
| 2026-05-04 13:11 | 23.38206 | 113.31310 | 59 ft | 20 kts | 194° |
| 2026-05-04 13:12 | 23.38059 | 113.31269 | 59 ft | 23 kts | 194° |
| 2026-05-04 13:12 | 23.37901 | 113.31227 | 59 ft | 21 kts | 193° |
| 2026-05-04 13:12 | 23.37763 | 113.31190 | 59 ft | 18 kts | 194° |
| 2026-05-04 13:12 | 23.37644 | 113.31158 | 59 ft | 16 kts | 194° |
| 2026-05-04 13:13 | 23.37536 | 113.31130 | 59 ft | 13 kts | 194° |
| 2026-05-04 13:13 | 23.37466 | 113.31091 | 59 ft | 9 kts | 235° |
| 2026-05-04 13:13 | 23.37465 | 113.31014 | 59 ft | 11 kts | 282° |
| 2026-05-04 13:13 | 23.37487 | 113.30916 | 59 ft | 14 kts | 284° |
| 2026-05-04 13:14 | 23.37514 | 113.30806 | 59 ft | 14 kts | 284° |
| 2026-05-04 13:14 | 23.37536 | 113.30710 | 59 ft | 12 kts | 284° |
| 2026-05-04 13:14 | 23.37541 | 113.30690 | 59 ft | 0 kts | 284° |
| 2026-05-04 13:14 | 23.37543 | 113.30682 | 59 ft | 4 kts | 284° |
| 2026-05-04 13:15 | 23.37557 | 113.30621 | 59 ft | 10 kts | 284° |
| 2026-05-04 13:15 | 23.37582 | 113.30558 | 59 ft | 8 kts | 322° |
| 2026-05-04 13:15 | 23.37633 | 113.30551 | 59 ft | 7 kts | 9° |
| 2026-05-04 13:15 | 23.37781 | 113.30590 | 59 ft | 52 kts | 15° |
| 2026-05-04 13:16 | 23.38394 | 113.30758 | 59 ft | 126 kts | 13° |
| 2026-05-04 13:16 | 23.39472 | 113.31048 | 61 ft | 192 kts | 14° |
| 2026-05-04 13:16 | 23.40884 | 113.31426 | 518 ft | 216 kts | 15° |
| 2026-05-04 13:16 | 23.42343 | 113.31834 | 1492 ft | 219 kts | 15° |
| 2026-05-04 13:17 | 23.43774 | 113.32214 | 2337 ft | 212 kts | 17° |
| 2026-05-04 13:17 | 23.45231 | 113.32690 | 2733 ft | 226 kts | 18° |
| 2026-05-04 13:17 | 23.46776 | 113.33186 | 3228 ft | 236 kts | 18° |
| 2026-05-04 13:17 | 23.48419 | 113.33721 | 3678 ft | 251 kts | 18° |
| 2026-05-04 13:18 | 23.50113 | 113.34242 | 4331 ft | 257 kts | 15° |
| 2026-05-04 13:18 | 23.51861 | 113.34763 | 4912 ft | 266 kts | 15° |
| 2026-05-04 13:18 | 23.53670 | 113.35281 | 5570 ft | 271 kts | 14° |
| 2026-05-04 13:18 | 23.55502 | 113.35783 | 6188 ft | 277 kts | 11° |
| 2026-05-04 13:19 | 23.57428 | 113.36186 | 6860 ft | 282 kts | 7° |
| 2026-05-04 13:19 | 23.58721 | 113.36430 | 7327 ft | 284 kts | 7° |
| 2026-05-04 13:19 | 23.61306 | 113.36916 | 8237 ft | 286 kts | 6° |
| 2026-05-04 13:19 | 23.63278 | 113.37278 | 8901 ft | 288 kts | 6° |
| 2026-05-04 13:20 | 23.65271 | 113.37670 | 9517 ft | 292 kts | 5° |
| 2026-05-04 13:20 | 23.67288 | 113.38049 | 10042 ft | 299 kts | 5° |
| 2026-05-04 13:20 | 23.69370 | 113.38444 | 10488 ft | 310 kts | 5° |
| 2026-05-04 13:20 | 23.71545 | 113.38802 | 10777 ft | 323 kts | 359° |
| 2026-05-04 13:21 | 23.73846 | 113.38818 | 11036 ft | 336 kts | 350° |
| 2026-05-04 13:21 | 23.76220 | 113.38390 | 11304 ft | 349 kts | 340° |
| 2026-05-04 13:21 | 23.78549 | 113.37495 | 11572 ft | 361 kts | 330° |
| 2026-05-04 13:21 | 23.80755 | 113.36120 | 11847 ft | 372 kts | 320° |
| 2026-05-04 13:22 | 23.82741 | 113.34261 | 12318 ft | 376 kts | 309° |
| 2026-05-04 13:22 | 23.84341 | 113.32062 | 12992 ft | 374 kts | 299° |
| 2026-05-04 13:22 | 23.85547 | 113.29569 | 13722 ft | 371 kts | 289° |
| 2026-05-04 13:22 | 23.86317 | 113.26881 | 14415 ft | 370 kts | 280° |
| 2026-05-04 13:23 | 23.86691 | 113.24102 | 15075 ft | 371 kts | 275° |
| 2026-05-04 13:23 | 23.86980 | 113.21325 | 15726 ft | 372 kts | 275° |
| 2026-05-04 13:23 | 23.87259 | 113.18495 | 16366 ft | 374 kts | 275° |
| 2026-05-04 13:23 | 23.87529 | 113.15666 | 16973 ft | 376 kts | 275° |
| 2026-05-04 13:24 | 23.87792 | 113.12833 | 17549 ft | 378 kts | 275° |
| 2026-05-04 13:24 | 23.88054 | 113.09968 | 18117 ft | 380 kts | 275° |
| 2026-05-04 13:24 | 23.88316 | 113.07085 | 18627 ft | 384 kts | 275° |
| 2026-05-04 13:25 | 23.89608 | 113.01379 | 19576 ft | 394 kts | 290° |
| 2026-05-04 13:25 | 23.90848 | 112.98698 | 19998 ft | 401 kts | 298° |
| 2026-05-04 13:25 | 23.92490 | 112.96201 | 20459 ft | 408 kts | 307° |
| 2026-05-04 13:25 | 23.94512 | 112.93974 | 20944 ft | 416 kts | 315° |
| 2026-05-04 13:26 | 23.96872 | 112.92096 | 21393 ft | 424 kts | 323° |
| 2026-05-04 13:26 | 23.99544 | 112.90622 | 21789 ft | 435 kts | 332° |
| 2026-05-04 13:26 | 24.02414 | 112.89586 | 22143 ft | 444 kts | 338° |
| 2026-05-04 13:26 | 24.05409 | 112.88647 | 22539 ft | 448 kts | 338° |
| 2026-05-04 13:27 | 24.08422 | 112.87693 | 22982 ft | 450 kts | 338° |
| 2026-05-04 13:27 | 24.11415 | 112.86732 | 23432 ft | 452 kts | 337° |
| 2026-05-04 13:27 | 24.14476 | 112.85738 | 23866 ft | 454 kts | 337° |
| 2026-05-04 13:27 | 24.17588 | 112.84721 | 24274 ft | 457 kts | 337° |
| 2026-05-04 13:28 | 24.20649 | 112.83715 | 24642 ft | 461 kts | 336° |
| 2026-05-04 13:28 | 24.23732 | 112.82699 | 25032 ft | 464 kts | 336° |
| 2026-05-04 13:28 | 24.26807 | 112.81683 | 25501 ft | 465 kts | 336° |
| 2026-05-04 13:28 | 24.29920 | 112.80651 | 25962 ft | 467 kts | 336° |
| 2026-05-04 13:29 | 24.33052 | 112.79611 | 26334 ft | 470 kts | 336° |
| 2026-05-04 13:29 | 24.36173 | 112.78526 | 26674 ft | 471 kts | 332° |
| 2026-05-04 13:29 | 24.39154 | 112.77035 | 27016 ft | 466 kts | 324° |
| 2026-05-04 13:29 | 24.41837 | 112.75127 | 27387 ft | 461 kts | 316° |
| 2026-05-04 13:30 | 24.44236 | 112.72818 | 27809 ft | 456 kts | 308° |
| 2026-05-04 13:30 | 24.46280 | 112.70192 | 28263 ft | 450 kts | 301° |
| 2026-05-04 13:30 | 24.47953 | 112.67304 | 28655 ft | 447 kts | 293° |
| 2026-05-04 13:30 | 24.49217 | 112.64251 | 29048 ft | 444 kts | 286° |
| 2026-05-04 13:31 | 24.50088 | 112.61009 | 29491 ft | 441 kts | 279° |
| 2026-05-04 13:31 | 24.50556 | 112.57717 | 30026 ft | 437 kts | 275° |
| 2026-05-04 13:31 | 24.50902 | 112.54408 | 30592 ft | 434 kts | 274° |
| 2026-05-04 13:31 | 24.51234 | 112.51133 | 31157 ft | 431 kts | 274° |
| 2026-05-04 13:32 | 24.51562 | 112.47856 | 31685 ft | 428 kts | 274° |
| 2026-05-04 13:32 | 24.51887 | 112.44572 | 32117 ft | 428 kts | 274° |
| 2026-05-04 13:32 | 24.52524 | 112.38049 | 32195 ft | 427 kts | 274° |
| 2026-05-04 13:33 | 24.53149 | 112.31576 | 32214 ft | 428 kts | 274° |
| 2026-05-04 13:33 | 24.53774 | 112.25063 | 32211 ft | 426 kts | 274° |
| 2026-05-04 13:34 | 24.54386 | 112.18636 | 32214 ft | 427 kts | 274° |
| 2026-05-04 13:34 | 24.55002 | 112.12138 | 32220 ft | 426 kts | 274° |
| 2026-05-04 13:35 | 24.55913 | 112.02462 | 32228 ft | 427 kts | 274° |
| 2026-05-04 13:36 | 24.56522 | 111.95960 | 32232 ft | 426 kts | 274° |
| 2026-05-04 13:36 | 24.57121 | 111.89527 | 32226 ft | 427 kts | 274° |
| 2026-05-04 13:37 | 24.57723 | 111.83040 | 32219 ft | 426 kts | 274° |
| 2026-05-04 13:37 | 24.58317 | 111.76599 | 32210 ft | 426 kts | 274° |
| 2026-05-04 13:38 | 24.58913 | 111.70110 | 32200 ft | 427 kts | 274° |
| 2026-05-04 13:38 | 24.59503 | 111.63657 | 32195 ft | 426 kts | 274° |
| 2026-05-04 13:39 | 24.60094 | 111.57161 | 32192 ft | 427 kts | 274° |
| 2026-05-04 13:39 | 24.60679 | 111.50705 | 32185 ft | 427 kts | 275° |
| 2026-05-04 13:40 | 24.61264 | 111.44215 | 32179 ft | 428 kts | 274° |
| 2026-05-04 13:40 | 24.61848 | 111.37693 | 32177 ft | 428 kts | 274° |
| 2026-05-04 13:41 | 24.62421 | 111.31280 | 32197 ft | 428 kts | 274° |
| 2026-05-04 13:41 | 24.62990 | 111.24781 | 32199 ft | 427 kts | 274° |
| 2026-05-04 13:42 | 24.63831 | 111.15028 | 32195 ft | 428 kts | 274° |
| 2026-05-04 13:42 | 24.64387 | 111.08552 | 32199 ft | 427 kts | 274° |
| 2026-05-04 13:43 | 24.64943 | 111.02036 | 32203 ft | 427 kts | 274° |
| 2026-05-04 13:43 | 24.65494 | 110.95555 | 32201 ft | 427 kts | 274° |
| 2026-05-04 13:44 | 24.66043 | 110.89065 | 32198 ft | 428 kts | 274° |
| 2026-05-04 13:44 | 24.66710 | 110.82576 | 32185 ft | 428 kts | 281° |
| 2026-05-04 13:45 | 24.68946 | 110.76469 | 32179 ft | 437 kts | 298° |
| 2026-05-04 13:45 | 24.72959 | 110.71371 | 32183 ft | 447 kts | 310° |
| 2026-05-04 13:46 | 24.77478 | 110.66626 | 32173 ft | 448 kts | 310° |
| 2026-05-04 13:46 | 24.81975 | 110.61900 | 32172 ft | 446 kts | 310° |
| 2026-05-04 13:47 | 24.86450 | 110.57184 | 32178 ft | 448 kts | 310° |
| 2026-05-04 13:47 | 24.90945 | 110.52443 | 32177 ft | 445 kts | 310° |
| 2026-05-04 13:48 | 24.95446 | 110.47686 | 32182 ft | 446 kts | 310° |
| 2026-05-04 13:48 | 24.99890 | 110.42986 | 32185 ft | 445 kts | 310° |
| 2026-05-04 13:49 | 25.04372 | 110.38249 | 32181 ft | 444 kts | 310° |
| 2026-05-04 13:49 | 25.08796 | 110.33577 | 32188 ft | 445 kts | 310° |
| 2026-05-04 13:50 | 25.13044 | 110.29087 | 32181 ft | 443 kts | 310° |
| 2026-05-04 13:50 | 25.17605 | 110.24258 | 32177 ft | 443 kts | 310° |
| 2026-05-04 13:51 | 25.22113 | 110.19493 | 32174 ft | 443 kts | 311° |
| 2026-05-04 13:51 | 25.26634 | 110.14765 | 32172 ft | 445 kts | 310° |
| 2026-05-04 13:52 | 25.33368 | 110.07713 | 32168 ft | 442 kts | 311° |
| 2026-05-04 13:53 | 25.37814 | 110.03049 | 32177 ft | 442 kts | 311° |
| 2026-05-04 13:53 | 25.42292 | 109.98343 | 32187 ft | 444 kts | 311° |
| 2026-05-04 13:54 | 25.48962 | 109.91328 | 32208 ft | 442 kts | 311° |
| 2026-05-04 13:55 | 25.55670 | 109.84259 | 32214 ft | 442 kts | 311° |
| 2026-05-04 13:55 | 25.62369 | 109.77187 | 32209 ft | 443 kts | 311° |
| 2026-05-04 13:56 | 25.66841 | 109.72463 | 32204 ft | 441 kts | 311° |
| 2026-05-04 13:57 | 25.73501 | 109.65414 | 32187 ft | 442 kts | 311° |
| 2026-05-04 13:58 | 25.79480 | 109.54004 | 32181 ft | 428 kts | 285° |
| 2026-05-04 13:58 | 25.82010 | 109.44497 | 32174 ft | 428 kts | 285° |
| 2026-05-04 13:59 | 25.83686 | 109.38144 | 32175 ft | 427 kts | 285° |
| 2026-05-04 14:00 | 25.86172 | 109.28684 | 32204 ft | 428 kts | 284° |
| 2026-05-04 14:00 | 25.88661 | 109.19173 | 32204 ft | 427 kts | 284° |
| 2026-05-04 14:01 | 25.90316 | 109.12835 | 32200 ft | 427 kts | 284° |
| 2026-05-04 14:02 | 25.92790 | 109.03337 | 32199 ft | 428 kts | 285° |
| 2026-05-04 14:02 | 25.94483 | 108.96982 | 32196 ft | 429 kts | 285° |
| 2026-05-04 14:03 | 25.96162 | 108.90671 | 32202 ft | 430 kts | 285° |
| 2026-05-04 14:03 | 25.97850 | 108.84311 | 32205 ft | 428 kts | 285° |
| 2026-05-04 14:04 | 26.00379 | 108.74755 | 32214 ft | 429 kts | 285° |
| 2026-05-04 14:04 | 26.02066 | 108.68394 | 32215 ft | 429 kts | 285° |
| 2026-05-04 14:05 | 26.04615 | 108.58807 | 32212 ft | 429 kts | 285° |
| 2026-05-04 14:06 | 26.06303 | 108.52441 | 32206 ft | 429 kts | 285° |
| 2026-05-04 14:06 | 26.07981 | 108.46101 | 32209 ft | 429 kts | 285° |
| 2026-05-04 14:07 | 26.09724 | 108.39754 | 32217 ft | 431 kts | 290° |
| 2026-05-04 14:07 | 26.12253 | 108.33725 | 32247 ft | 429 kts | 294° |
| 2026-05-04 14:08 | 26.14890 | 108.27651 | 32276 ft | 430 kts | 293° |
| 2026-05-04 14:08 | 26.17481 | 108.21667 | 32291 ft | 430 kts | 294° |
| 2026-05-04 14:09 | 26.21379 | 108.12644 | 32281 ft | 430 kts | 293° |
| 2026-05-04 14:10 | 26.25257 | 108.03643 | 32277 ft | 428 kts | 293° |
| 2026-05-04 14:10 | 26.27832 | 107.97655 | 32271 ft | 428 kts | 293° |
| 2026-05-04 14:11 | 26.30391 | 107.91695 | 32266 ft | 428 kts | 294° |
| 2026-05-04 14:11 | 26.34251 | 107.82692 | 32264 ft | 428 kts | 293° |
| 2026-05-04 14:12 | 26.36831 | 107.76660 | 32254 ft | 429 kts | 294° |
| 2026-05-04 14:13 | 26.40657 | 107.67703 | 32249 ft | 428 kts | 293° |
| 2026-05-04 14:13 | 26.43230 | 107.61670 | 32248 ft | 427 kts | 294° |
| 2026-05-04 14:14 | 26.45780 | 107.55679 | 32255 ft | 429 kts | 294° |
| 2026-05-04 14:14 | 26.49602 | 107.46680 | 32264 ft | 429 kts | 294° |
| 2026-05-04 14:15 | 26.54693 | 107.34645 | 32264 ft | 428 kts | 293° |
| 2026-05-04 14:16 | 26.58524 | 107.25596 | 32272 ft | 427 kts | 294° |
| 2026-05-04 14:17 | 26.62328 | 107.16593 | 32267 ft | 427 kts | 293° |
| 2026-05-04 14:18 | 26.66139 | 107.07607 | 32260 ft | 426 kts | 294° |
| 2026-05-04 14:19 | 26.71239 | 106.95592 | 32259 ft | 427 kts | 294° |
| 2026-05-04 14:19 | 26.73767 | 106.89622 | 32257 ft | 426 kts | 294° |
| 2026-05-04 14:20 | 26.76304 | 106.83622 | 32265 ft | 428 kts | 294° |
| 2026-05-04 14:20 | 26.79281 | 106.77847 | 32268 ft | 431 kts | 306° |
| 2026-05-04 14:21 | 26.85902 | 106.70939 | 32278 ft | 436 kts | 314° |
| 2026-05-04 14:21 | 26.90476 | 106.66467 | 32282 ft | 436 kts | 314° |
| 2026-05-04 14:22 | 26.95059 | 106.61978 | 32281 ft | 436 kts | 314° |
| 2026-05-04 14:22 | 26.99612 | 106.57513 | 32282 ft | 434 kts | 315° |
| 2026-05-04 14:23 | 27.06440 | 106.50803 | 32274 ft | 434 kts | 314° |
| 2026-05-04 14:24 | 27.10909 | 106.46406 | 32275 ft | 434 kts | 315° |
| 2026-05-04 14:24 | 27.15558 | 106.41826 | 32277 ft | 434 kts | 314° |
| 2026-05-04 14:25 | 27.20099 | 106.37347 | 32283 ft | 433 kts | 314° |
| 2026-05-04 14:25 | 27.26934 | 106.30697 | 32300 ft | 433 kts | 314° |
| 2026-05-04 14:26 | 27.31486 | 106.26266 | 32292 ft | 431 kts | 314° |
| 2026-05-04 14:26 | 27.36040 | 106.21828 | 32294 ft | 432 kts | 314° |
| 2026-05-04 14:27 | 27.40554 | 106.17423 | 32296 ft | 430 kts | 314° |
| 2026-05-04 14:27 | 27.45103 | 106.12979 | 32290 ft | 430 kts | 314° |
| 2026-05-04 14:28 | 27.49627 | 106.08553 | 32272 ft | 431 kts | 315° |
| 2026-05-04 14:28 | 27.54150 | 106.04124 | 32268 ft | 430 kts | 315° |
| 2026-05-04 14:29 | 27.63179 | 105.95265 | 32253 ft | 430 kts | 314° |
| 2026-05-04 14:30 | 27.67703 | 105.90820 | 32242 ft | 430 kts | 314° |
| 2026-05-04 14:30 | 27.71882 | 105.86108 | 32227 ft | 423 kts | 303° |
| 2026-05-04 14:31 | 27.73431 | 105.83293 | 32220 ft | 421 kts | 295° |
| 2026-05-04 14:32 | 27.77240 | 105.70766 | 32222 ft | 422 kts | 288° |
| 2026-05-04 14:32 | 27.79014 | 105.64431 | 32222 ft | 423 kts | 288° |
| 2026-05-04 14:33 | 27.81076 | 105.58237 | 32220 ft | 422 kts | 293° |
| 2026-05-04 14:33 | 27.83431 | 105.52177 | 32224 ft | 422 kts | 293° |
| 2026-05-04 14:34 | 27.85790 | 105.46091 | 32227 ft | 422 kts | 293° |
| 2026-05-04 14:34 | 27.88128 | 105.40043 | 32220 ft | 422 kts | 293° |
| 2026-05-04 14:35 | 27.90650 | 105.34090 | 32224 ft | 422 kts | 296° |
| 2026-05-04 14:35 | 27.93332 | 105.28151 | 32251 ft | 422 kts | 296° |
| 2026-05-04 14:36 | 27.95984 | 105.22234 | 32242 ft | 422 kts | 296° |
| 2026-05-04 14:36 | 27.99462 | 105.16853 | 32238 ft | 429 kts | 312° |
| 2026-05-04 14:37 | 28.04346 | 105.12872 | 32221 ft | 435 kts | 322° |
| 2026-05-04 14:37 | 28.09514 | 105.09265 | 32205 ft | 435 kts | 323° |
| 2026-05-04 14:38 | 28.14682 | 105.05656 | 32214 ft | 436 kts | 322° |
| 2026-05-04 14:38 | 28.19894 | 105.02010 | 32226 ft | 435 kts | 323° |
| 2026-05-04 14:39 | 28.25056 | 104.98395 | 32241 ft | 437 kts | 323° |
| 2026-05-04 14:39 | 28.30239 | 104.94760 | 32226 ft | 438 kts | 322° |
| 2026-05-04 14:40 | 28.37970 | 104.89332 | 32186 ft | 435 kts | 323° |
| 2026-05-04 14:40 | 28.43137 | 104.85715 | 32167 ft | 435 kts | 323° |
| 2026-05-04 14:41 | 28.48321 | 104.82092 | 32152 ft | 436 kts | 323° |
| 2026-05-04 14:42 | 28.58646 | 104.74864 | 32136 ft | 435 kts | 323° |
| 2026-05-04 14:42 | 28.63811 | 104.71241 | 32135 ft | 435 kts | 323° |
| 2026-05-04 14:43 | 28.68990 | 104.67603 | 32146 ft | 436 kts | 323° |
| 2026-05-04 14:43 | 28.74134 | 104.63987 | 32129 ft | 436 kts | 323° |
| 2026-05-04 14:44 | 28.79313 | 104.60341 | 32120 ft | 435 kts | 323° |
| 2026-05-04 14:44 | 28.84444 | 104.56724 | 32110 ft | 435 kts | 323° |
| 2026-05-04 14:45 | 28.89591 | 104.53072 | 32113 ft | 435 kts | 323° |
| 2026-05-04 14:45 | 28.94735 | 104.49407 | 32106 ft | 435 kts | 323° |
| 2026-05-04 14:46 | 28.99862 | 104.45752 | 32086 ft | 435 kts | 323° |
| 2026-05-04 14:46 | 29.04996 | 104.42088 | 32087 ft | 434 kts | 323° |
| 2026-05-04 14:47 | 29.10085 | 104.38451 | 32087 ft | 434 kts | 323° |
| 2026-05-04 14:47 | 29.15285 | 104.34731 | 32100 ft | 432 kts | 323° |
| 2026-05-04 14:48 | 29.20448 | 104.31033 | 32118 ft | 432 kts | 323° |
| 2026-05-04 14:48 | 29.25857 | 104.28000 | 32118 ft | 443 kts | 337° |
| 2026-05-04 14:49 | 29.32064 | 104.27078 | 32120 ft | 460 kts | 355° |
| 2026-05-04 14:49 | 29.38473 | 104.28030 | 32130 ft | 467 kts | 0° |
| 2026-05-04 14:50 | 29.44927 | 104.29160 | 32143 ft | 467 kts | 0° |
| 2026-05-04 14:50 | 29.51342 | 104.30269 | 32154 ft | 464 kts | 0° |
| 2026-05-04 14:51 | 29.57745 | 104.31367 | 32156 ft | 466 kts | 0° |
| 2026-05-04 14:51 | 29.64145 | 104.32464 | 32152 ft | 463 kts | 0° |
| 2026-05-04 14:52 | 29.70508 | 104.33551 | 32144 ft | 462 kts | 0° |
| 2026-05-04 14:52 | 29.76869 | 104.34639 | 32145 ft | 463 kts | 0° |
| 2026-05-04 14:53 | 29.83244 | 104.35730 | 32138 ft | 462 kts | 0° |
| 2026-05-04 14:53 | 29.89603 | 104.36819 | 32135 ft | 460 kts | 0° |
| 2026-05-04 14:54 | 29.95942 | 104.37906 | 32125 ft | 458 kts | 0° |
| 2026-05-04 14:54 | 30.02256 | 104.38989 | 32128 ft | 460 kts | 0° |
| 2026-05-04 14:55 | 30.08543 | 104.40070 | 32125 ft | 458 kts | 1° |
| 2026-05-04 14:55 | 30.14838 | 104.41153 | 32136 ft | 459 kts | 1° |
| 2026-05-04 14:56 | 30.21212 | 104.42263 | 32128 ft | 457 kts | 1° |
| 2026-05-04 14:56 | 30.27492 | 104.43359 | 32127 ft | 458 kts | 1° |
| 2026-05-04 14:57 | 30.33811 | 104.44461 | 32125 ft | 459 kts | 1° |
| 2026-05-04 14:57 | 30.40112 | 104.45564 | 32128 ft | 456 kts | 1° |
| 2026-05-04 14:58 | 30.46411 | 104.46666 | 32122 ft | 456 kts | 1° |
| 2026-05-04 14:58 | 30.51628 | 104.47580 | 32125 ft | 457 kts | 1° |
| 2026-05-04 14:59 | 30.59000 | 104.48594 | 32125 ft | 449 kts | 353° |
| 2026-05-04 14:59 | 30.65068 | 104.47454 | 32127 ft | 438 kts | 338° |
| 2026-05-04 15:00 | 30.67972 | 104.46365 | 32123 ft | 438 kts | 337° |
| 2026-05-04 15:00 | 30.73780 | 104.44141 | 32126 ft | 437 kts | 338° |
| 2026-05-04 15:01 | 30.82391 | 104.40836 | 32130 ft | 436 kts | 337° |
| 2026-05-04 15:01 | 30.88284 | 104.39063 | 32121 ft | 444 kts | 349° |
| 2026-05-04 15:02 | 30.94550 | 104.38789 | 32123 ft | 447 kts | 353° |
| 2026-05-04 15:02 | 31.00790 | 104.38631 | 32139 ft | 450 kts | 353° |
| 2026-05-04 15:03 | 31.07023 | 104.38471 | 32160 ft | 447 kts | 353° |
| 2026-05-04 15:03 | 31.13270 | 104.38307 | 32178 ft | 450 kts | 353° |
| 2026-05-04 15:04 | 31.19518 | 104.38144 | 32185 ft | 448 kts | 353° |
| 2026-05-04 15:04 | 31.25768 | 104.37977 | 32184 ft | 447 kts | 352° |
| 2026-05-04 15:05 | 31.32007 | 104.37620 | 32184 ft | 448 kts | 352° |
| 2026-05-04 15:05 | 31.38211 | 104.37244 | 32199 ft | 448 kts | 352° |
| 2026-05-04 15:06 | 31.44477 | 104.36872 | 32208 ft | 447 kts | 352° |
| 2026-05-04 15:07 | 31.53815 | 104.36321 | 32232 ft | 445 kts | 352° |
| 2026-05-04 15:07 | 31.59997 | 104.35957 | 32257 ft | 447 kts | 352° |
| 2026-05-04 15:08 | 31.66203 | 104.35593 | 32274 ft | 446 kts | 352° |
| 2026-05-04 15:08 | 31.72416 | 104.35228 | 32302 ft | 447 kts | 352° |
| 2026-05-04 15:09 | 31.78608 | 104.34870 | 32311 ft | 445 kts | 353° |
| 2026-05-04 15:09 | 31.84816 | 104.34554 | 32314 ft | 447 kts | 353° |
| 2026-05-04 15:10 | 31.94159 | 104.34079 | 32318 ft | 447 kts | 352° |
| 2026-05-04 15:11 | 32.03464 | 104.33603 | 32336 ft | 444 kts | 353° |
| 2026-05-04 15:11 | 32.09626 | 104.33286 | 32347 ft | 444 kts | 353° |
| 2026-05-04 15:12 | 32.15764 | 104.32970 | 32361 ft | 446 kts | 353° |
| 2026-05-04 15:12 | 32.21951 | 104.32652 | 32394 ft | 442 kts | 353° |
| 2026-05-04 15:13 | 32.28110 | 104.32333 | 32419 ft | 444 kts | 353° |
| 2026-05-04 15:13 | 32.34313 | 104.32012 | 32404 ft | 445 kts | 353° |
| 2026-05-04 15:14 | 32.40466 | 104.31694 | 32403 ft | 442 kts | 353° |
| 2026-05-04 15:14 | 32.46646 | 104.31390 | 32414 ft | 445 kts | 353° |
| 2026-05-04 15:15 | 32.52807 | 104.31096 | 32398 ft | 443 kts | 354° |
| 2026-05-04 15:15 | 32.58951 | 104.30801 | 32462 ft | 442 kts | 353° |
| 2026-05-04 15:16 | 32.68197 | 104.30357 | 32460 ft | 443 kts | 354° |
| 2026-05-04 15:17 | 32.77438 | 104.29913 | 32485 ft | 442 kts | 354° |
| 2026-05-04 15:17 | 32.86656 | 104.29468 | 32500 ft | 442 kts | 354° |
| 2026-05-04 15:18 | 32.92796 | 104.29171 | 32493 ft | 440 kts | 354° |
| 2026-05-04 15:19 | 33.01979 | 104.28725 | 32495 ft | 440 kts | 354° |
| 2026-05-04 15:19 | 33.10940 | 104.28290 | 32459 ft | 442 kts | 354° |
| 2026-05-04 15:20 | 33.17308 | 104.27980 | 32448 ft | 444 kts | 354° |
| 2026-05-04 15:20 | 33.23440 | 104.27683 | 32430 ft | 440 kts | 354° |
| 2026-05-04 15:21 | 33.29484 | 104.26809 | 32433 ft | 437 kts | 342° |
| 2026-05-04 15:21 | 33.34950 | 104.23731 | 32433 ft | 437 kts | 325° |
| 2026-05-04 15:22 | 33.37290 | 104.21404 | 32457 ft | 437 kts | 316° |
| 2026-05-04 15:22 | 33.42343 | 104.12290 | 32504 ft | 442 kts | 301° |
| 2026-05-04 15:23 | 33.45240 | 104.05836 | 32504 ft | 442 kts | 301° |
| 2026-05-04 15:23 | 33.48156 | 103.99315 | 32497 ft | 444 kts | 302° |
| 2026-05-04 15:24 | 33.53934 | 103.86350 | 32508 ft | 443 kts | 302° |
| 2026-05-04 15:25 | 33.56797 | 103.79904 | 32532 ft | 441 kts | 302° |
| 2026-05-04 15:26 | 33.61114 | 103.70164 | 32577 ft | 440 kts | 302° |
| 2026-05-04 15:26 | 33.65404 | 103.60457 | 32596 ft | 438 kts | 302° |
| 2026-05-04 15:27 | 33.69672 | 103.50773 | 32600 ft | 437 kts | 302° |
| 2026-05-04 15:28 | 33.73923 | 103.41099 | 32613 ft | 437 kts | 302° |
| 2026-05-04 15:29 | 33.78140 | 103.31478 | 32616 ft | 438 kts | 301° |
| 2026-05-04 15:30 | 33.87979 | 103.08926 | 32604 ft | 436 kts | 302° |
| 2026-05-04 15:31 | 33.92164 | 102.99286 | 32601 ft | 433 kts | 301° |
| 2026-05-04 15:32 | 33.99133 | 102.83179 | 32605 ft | 436 kts | 302° |
| 2026-05-04 15:34 | 34.06088 | 102.67028 | 32624 ft | 436 kts | 302° |
| 2026-05-04 15:34 | 34.10207 | 102.57427 | 32633 ft | 433 kts | 302° |
| 2026-05-04 15:35 | 34.14383 | 102.47666 | 32661 ft | 436 kts | 302° |
| 2026-05-04 15:36 | 34.18541 | 102.37919 | 32658 ft | 435 kts | 302° |
| 2026-05-04 15:36 | 34.21328 | 102.31549 | 32664 ft | 436 kts | 303° |
| 2026-05-04 15:37 | 34.24177 | 102.25136 | 32672 ft | 433 kts | 303° |
| 2026-05-04 15:37 | 34.27018 | 102.18721 | 32666 ft | 433 kts | 303° |
| 2026-05-04 15:38 | 34.29851 | 102.12308 | 32665 ft | 436 kts | 303° |
| 2026-05-04 15:38 | 34.32689 | 102.05866 | 32658 ft | 431 kts | 303° |
| 2026-05-04 15:39 | 34.35521 | 101.99429 | 32659 ft | 436 kts | 303° |
| 2026-05-04 15:40 | 34.39758 | 101.89771 | 32679 ft | 436 kts | 303° |
| 2026-05-04 15:40 | 34.42567 | 101.83350 | 32680 ft | 432 kts | 302° |
| 2026-05-04 15:41 | 34.45389 | 101.76891 | 32688 ft | 434 kts | 302° |
| 2026-05-04 15:41 | 34.48179 | 101.70492 | 32699 ft | 434 kts | 302° |
| 2026-05-04 15:42 | 34.50996 | 101.64017 | 32706 ft | 435 kts | 303° |
| 2026-05-04 15:42 | 34.53808 | 101.57542 | 32704 ft | 432 kts | 302° |
| 2026-05-04 15:43 | 34.56598 | 101.51109 | 32704 ft | 435 kts | 302° |
| 2026-05-04 15:43 | 34.59394 | 101.44643 | 32708 ft | 432 kts | 302° |
| 2026-05-04 15:44 | 34.62190 | 101.38172 | 32710 ft | 435 kts | 302° |
| 2026-05-04 15:44 | 34.64942 | 101.31788 | 32714 ft | 434 kts | 301° |
| 2026-05-04 15:45 | 34.67745 | 101.25272 | 32715 ft | 433 kts | 302° |
| 2026-05-04 15:45 | 34.70544 | 101.18756 | 32723 ft | 437 kts | 302° |
| 2026-05-04 15:46 | 34.73343 | 101.12225 | 32716 ft | 436 kts | 301° |
| 2026-05-04 15:46 | 34.76125 | 101.05720 | 32717 ft | 435 kts | 301° |
| 2026-05-04 15:47 | 34.78919 | 100.99178 | 32719 ft | 438 kts | 301° |
| 2026-05-04 15:47 | 34.81707 | 100.92636 | 32718 ft | 436 kts | 301° |
| 2026-05-04 15:48 | 34.84493 | 100.86086 | 32717 ft | 437 kts | 301° |
| 2026-05-04 15:48 | 34.88670 | 100.76240 | 32728 ft | 437 kts | 301° |
| 2026-05-04 15:49 | 34.91462 | 100.69645 | 32727 ft | 439 kts | 301° |
| 2026-05-04 15:49 | 34.94247 | 100.63050 | 32724 ft | 436 kts | 301° |
| 2026-05-04 15:50 | 34.97002 | 100.56516 | 32718 ft | 438 kts | 301° |
| 2026-05-04 15:50 | 34.99774 | 100.49928 | 32713 ft | 439 kts | 301° |
| 2026-05-04 15:51 | 35.02566 | 100.43279 | 32690 ft | 439 kts | 301° |
| 2026-05-04 15:51 | 35.05332 | 100.36680 | 32690 ft | 439 kts | 301° |
| 2026-05-04 15:52 | 35.08067 | 100.30143 | 32682 ft | 439 kts | 300° |
| 2026-05-04 15:52 | 35.10807 | 100.23578 | 32669 ft | 438 kts | 300° |
| 2026-05-04 15:53 | 35.13605 | 100.16863 | 32667 ft | 441 kts | 300° |
| 2026-05-04 15:53 | 35.16365 | 100.10227 | 32664 ft | 440 kts | 299° |
| 2026-05-04 15:54 | 35.19119 | 100.03589 | 32670 ft | 439 kts | 300° |
| 2026-05-04 15:54 | 35.21873 | 99.96941 | 32685 ft | 441 kts | 300° |
| 2026-05-04 15:55 | 35.24627 | 99.90276 | 32692 ft | 438 kts | 299° |
| 2026-05-04 15:55 | 35.27383 | 99.83597 | 32672 ft | 441 kts | 299° |
| 2026-05-04 15:56 | 35.30138 | 99.76906 | 32691 ft | 442 kts | 299° |
| 2026-05-04 15:56 | 35.32874 | 99.70246 | 32697 ft | 439 kts | 299° |
| 2026-05-04 15:57 | 35.35630 | 99.63524 | 32702 ft | 442 kts | 298° |
| 2026-05-04 15:57 | 35.38359 | 99.56853 | 32696 ft | 441 kts | 299° |
| 2026-05-04 15:58 | 35.41108 | 99.50124 | 32682 ft | 440 kts | 298° |
| 2026-05-04 15:58 | 35.43843 | 99.43411 | 32701 ft | 441 kts | 298° |
| 2026-05-04 15:59 | 35.46576 | 99.36694 | 32683 ft | 441 kts | 298° |
| 2026-05-04 15:59 | 35.49286 | 99.30015 | 32720 ft | 442 kts | 298° |
| 2026-05-04 16:00 | 35.52014 | 99.23279 | 32710 ft | 443 kts | 298° |
| 2026-05-04 16:00 | 35.54744 | 99.16525 | 32714 ft | 443 kts | 298° |
| 2026-05-04 16:01 | 35.57475 | 99.09757 | 32721 ft | 443 kts | 298° |
| 2026-05-04 16:01 | 35.60204 | 99.02976 | 32722 ft | 443 kts | 298° |
| 2026-05-04 16:02 | 35.62928 | 98.96197 | 32724 ft | 444 kts | 298° |
| 2026-05-04 16:03 | 35.67003 | 98.86026 | 32726 ft | 443 kts | 298° |
| 2026-05-04 16:03 | 35.69725 | 98.79215 | 32708 ft | 446 kts | 298° |
| 2026-05-04 16:04 | 35.72425 | 98.72442 | 32693 ft | 443 kts | 298° |
| 2026-05-04 16:04 | 35.76498 | 98.62204 | 32673 ft | 444 kts | 297° |
| 2026-05-04 16:05 | 35.79205 | 98.55379 | 32689 ft | 444 kts | 297° |
| 2026-05-04 16:06 | 35.83253 | 98.45149 | 32678 ft | 444 kts | 297° |
| 2026-05-04 16:07 | 35.88644 | 98.31472 | 32619 ft | 446 kts | 297° |
| 2026-05-04 16:08 | 35.94054 | 98.17690 | 32608 ft | 445 kts | 296° |
| 2026-05-04 16:09 | 36.00794 | 98.00436 | 32545 ft | 446 kts | 296° |
| 2026-05-04 16:10 | 36.06172 | 97.86604 | 32522 ft | 447 kts | 296° |
| 2026-05-04 16:11 | 36.11474 | 97.72907 | 32529 ft | 445 kts | 296° |
| 2026-05-04 16:12 | 36.19588 | 97.52357 | 32540 ft | 446 kts | 297° |
| 2026-05-04 16:13 | 36.25107 | 97.38677 | 32543 ft | 444 kts | 297° |
| 2026-05-04 16:14 | 36.30566 | 97.25069 | 32569 ft | 442 kts | 296° |
| 2026-05-04 16:16 | 36.37373 | 97.08015 | 32563 ft | 443 kts | 296° |
| 2026-05-04 16:17 | 36.44166 | 96.90900 | 32539 ft | 443 kts | 296° |
| 2026-05-04 16:18 | 36.49585 | 96.77182 | 32529 ft | 443 kts | 296° |
| 2026-05-04 16:19 | 36.56340 | 96.59998 | 32481 ft | 444 kts | 296° |
| 2026-05-04 16:20 | 36.63218 | 96.42793 | 32464 ft | 444 kts | 296° |
| 2026-05-04 16:22 | 36.70029 | 96.25703 | 32469 ft | 443 kts | 296° |
| 2026-05-04 16:23 | 36.78215 | 96.05033 | 32413 ft | 444 kts | 296° |
| 2026-05-04 16:25 | 36.86439 | 95.84372 | 32366 ft | 445 kts | 296° |
| 2026-05-04 16:26 | 36.95962 | 95.60273 | 32331 ft | 444 kts | 296° |
| 2026-05-04 16:28 | 37.02803 | 95.43078 | 32305 ft | 441 kts | 297° |
| 2026-05-04 16:29 | 37.12498 | 95.19196 | 32314 ft | 443 kts | 296° |
| 2026-05-04 16:31 | 37.19383 | 95.02104 | 32317 ft | 442 kts | 296° |
| 2026-05-04 16:32 | 37.27660 | 94.81432 | 32327 ft | 444 kts | 296° |
| 2026-05-04 16:33 | 37.33159 | 94.67622 | 32345 ft | 445 kts | 296° |
| 2026-05-04 16:34 | 37.37264 | 94.57274 | 32341 ft | 443 kts | 296° |
| 2026-05-04 16:35 | 37.45480 | 94.36458 | 32324 ft | 443 kts | 296° |
| 2026-05-04 16:36 | 37.49559 | 94.26073 | 32318 ft | 444 kts | 296° |
| 2026-05-04 16:37 | 37.53653 | 94.15613 | 32316 ft | 445 kts | 296° |
| 2026-05-04 16:38 | 37.59064 | 94.01735 | 32314 ft | 444 kts | 296° |
| 2026-05-04 16:39 | 37.65832 | 93.84290 | 32316 ft | 445 kts | 296° |
| 2026-05-04 16:40 | 37.71252 | 93.70247 | 32308 ft | 444 kts | 296° |
| 2026-05-04 16:41 | 37.77990 | 93.52703 | 32315 ft | 446 kts | 296° |
| 2026-05-04 16:43 | 37.84708 | 93.35108 | 32312 ft | 446 kts | 296° |
| 2026-05-04 16:43 | 37.88730 | 93.24526 | 32316 ft | 446 kts | 295° |
| 2026-05-04 16:45 | 37.96737 | 93.03351 | 32310 ft | 448 kts | 295° |
| 2026-05-04 16:46 | 38.03420 | 92.85564 | 32306 ft | 448 kts | 295° |
| 2026-05-04 16:47 | 38.08717 | 92.71392 | 32309 ft | 444 kts | 294° |
| 2026-05-04 16:48 | 38.13967 | 92.57282 | 32321 ft | 445 kts | 294° |
| 2026-05-04 16:49 | 38.18796 | 92.42819 | 32330 ft | 444 kts | 290° |
| 2026-05-04 16:50 | 38.23093 | 92.28275 | 32351 ft | 444 kts | 289° |
| 2026-05-04 16:51 | 38.26333 | 92.17259 | 32358 ft | 445 kts | 289° |
| 2026-05-04 16:52 | 38.30643 | 92.02531 | 32372 ft | 445 kts | 288° |
| 2026-05-04 16:53 | 38.33860 | 91.91488 | 32364 ft | 446 kts | 288° |
| 2026-05-04 16:54 | 38.38134 | 91.76744 | 32371 ft | 445 kts | 288° |
| 2026-05-04 16:55 | 38.44528 | 91.54534 | 32377 ft | 445 kts | 288° |
| 2026-05-04 16:56 | 38.49823 | 91.35999 | 32388 ft | 446 kts | 288° |
| 2026-05-04 16:57 | 38.52962 | 91.24951 | 32408 ft | 446 kts | 287° |
| 2026-05-04 16:58 | 38.57149 | 91.10139 | 32400 ft | 445 kts | 287° |
| 2026-05-04 17:00 | 38.63398 | 90.87881 | 32428 ft | 443 kts | 287° |
| 2026-05-04 17:01 | 38.68578 | 90.69289 | 32423 ft | 445 kts | 287° |
| 2026-05-04 17:02 | 38.73293 | 90.54658 | 32417 ft | 446 kts | 289° |
| 2026-05-04 17:03 | 38.76828 | 90.43671 | 32403 ft | 446 kts | 289° |
| 2026-05-04 17:03 | 38.80295 | 90.32818 | 32414 ft | 445 kts | 288° |
| 2026-05-04 17:04 | 38.84997 | 90.18020 | 32400 ft | 446 kts | 288° |
| 2026-05-04 17:05 | 38.89635 | 90.03342 | 32386 ft | 445 kts | 288° |
| 2026-05-04 17:06 | 38.93111 | 89.92290 | 32379 ft | 444 kts | 287° |
| 2026-05-04 17:07 | 38.95793 | 89.83728 | 32374 ft | 448 kts | 287° |
| 2026-05-04 17:07 | 38.98868 | 89.73883 | 32335 ft | 445 kts | 287° |
| 2026-05-04 17:08 | 39.02305 | 89.62833 | 32339 ft | 446 kts | 287° |
| 2026-05-04 17:09 | 39.04596 | 89.55447 | 32276 ft | 445 kts | 287° |
| 2026-05-04 17:09 | 39.06890 | 89.48028 | 32275 ft | 447 kts | 287° |
| 2026-05-04 17:10 | 39.12548 | 89.29647 | 32195 ft | 447 kts | 287° |
| 2026-05-04 17:11 | 39.14807 | 89.22274 | 32141 ft | 446 kts | 286° |
| 2026-05-04 17:12 | 39.18220 | 89.11093 | 32095 ft | 446 kts | 286° |
| 2026-05-04 17:13 | 39.23865 | 88.92505 | 32039 ft | 448 kts | 286° |
| 2026-05-04 17:14 | 39.28365 | 88.77590 | 31994 ft | 448 kts | 286° |
| 2026-05-04 17:15 | 39.31755 | 88.66303 | 31989 ft | 450 kts | 286° |
| 2026-05-04 17:16 | 39.36237 | 88.51308 | 31972 ft | 450 kts | 286° |
| 2026-05-04 17:17 | 39.40707 | 88.36267 | 31953 ft | 449 kts | 286° |
| 2026-05-04 17:18 | 39.45148 | 88.21240 | 31946 ft | 450 kts | 285° |
| 2026-05-04 17:19 | 39.49575 | 88.06175 | 31937 ft | 448 kts | 285° |
| 2026-05-04 17:20 | 39.53989 | 87.91071 | 31927 ft | 448 kts | 285° |
| 2026-05-04 17:20 | 39.57299 | 87.79684 | 31921 ft | 451 kts | 285° |
| 2026-05-04 17:21 | 39.61687 | 87.64514 | 31929 ft | 453 kts | 286° |
| 2026-05-04 17:22 | 39.63878 | 87.56908 | 31938 ft | 450 kts | 285° |
| 2026-05-04 17:23 | 39.68243 | 87.41686 | 31940 ft | 452 kts | 285° |
| 2026-05-04 17:24 | 39.71490 | 87.30311 | 31947 ft | 449 kts | 284° |
| 2026-05-04 17:25 | 39.75826 | 87.15032 | 31949 ft | 452 kts | 284° |
| 2026-05-04 17:26 | 39.80153 | 86.99696 | 31961 ft | 456 kts | 284° |
| 2026-05-04 17:27 | 39.85558 | 86.80412 | 31957 ft | 458 kts | 284° |
| 2026-05-04 17:28 | 39.89869 | 86.64938 | 31954 ft | 454 kts | 284° |
| 2026-05-04 17:29 | 39.96289 | 86.41705 | 31963 ft | 453 kts | 284° |
| 2026-05-04 17:31 | 40.01606 | 86.22294 | 31985 ft | 458 kts | 283° |
| 2026-05-04 17:32 | 40.06891 | 86.02862 | 31981 ft | 458 kts | 283° |
| 2026-05-04 17:33 | 40.10524 | 85.87086 | 31949 ft | 457 kts | 280° |
| 2026-05-04 17:34 | 40.14010 | 85.71249 | 31939 ft | 456 kts | 280° |
| 2026-05-04 17:35 | 40.18336 | 85.51423 | 31950 ft | 456 kts | 280° |
| 2026-05-04 17:36 | 40.20056 | 85.43489 | 31946 ft | 456 kts | 280° |
| 2026-05-04 17:36 | 40.21775 | 85.35539 | 31941 ft | 456 kts | 280° |
| 2026-05-04 17:37 | 40.23492 | 85.27559 | 31959 ft | 457 kts | 279° |
| 2026-05-04 17:37 | 40.25201 | 85.19593 | 31947 ft | 455 kts | 280° |
| 2026-05-04 17:38 | 40.26906 | 85.11610 | 31957 ft | 457 kts | 279° |
| 2026-05-04 17:38 | 40.28605 | 85.03632 | 31960 ft | 454 kts | 280° |
| 2026-05-04 17:39 | 40.31153 | 84.91598 | 31967 ft | 460 kts | 279° |
| 2026-05-04 17:39 | 40.32843 | 84.83592 | 31963 ft | 456 kts | 280° |
| 2026-05-04 17:40 | 40.34526 | 84.75581 | 31961 ft | 457 kts | 280° |
| 2026-05-04 17:40 | 40.36218 | 84.67488 | 31966 ft | 462 kts | 280° |
| 2026-05-04 17:41 | 40.37891 | 84.59473 | 31964 ft | 458 kts | 280° |
| 2026-05-04 17:41 | 40.39565 | 84.51412 | 31958 ft | 460 kts | 280° |
| 2026-05-04 17:42 | 40.41239 | 84.43317 | 31954 ft | 461 kts | 281° |
| 2026-05-04 17:42 | 40.42910 | 84.35210 | 31957 ft | 459 kts | 281° |
| 2026-05-04 17:43 | 40.44560 | 84.27177 | 31965 ft | 459 kts | 279° |
| 2026-05-04 17:43 | 40.46221 | 84.19050 | 31966 ft | 462 kts | 280° |
| 2026-05-04 17:44 | 40.47870 | 84.10954 | 31954 ft | 465 kts | 280° |
| 2026-05-04 17:44 | 40.49524 | 84.02804 | 31958 ft | 461 kts | 281° |
| 2026-05-04 17:45 | 40.51162 | 83.94701 | 31956 ft | 460 kts | 280° |
| 2026-05-04 17:45 | 40.52855 | 83.86519 | 31953 ft | 465 kts | 281° |
| 2026-05-04 17:46 | 40.54571 | 83.78364 | 31962 ft | 464 kts | 281° |
| 2026-05-04 17:46 | 40.56270 | 83.70242 | 31955 ft | 461 kts | 281° |
| 2026-05-04 17:47 | 40.57963 | 83.62102 | 31947 ft | 467 kts | 281° |
| 2026-05-04 17:47 | 40.59663 | 83.53898 | 31970 ft | 467 kts | 282° |
| 2026-05-04 17:48 | 40.61366 | 83.45650 | 31974 ft | 465 kts | 282° |
| 2026-05-04 17:48 | 40.63050 | 83.37454 | 31975 ft | 467 kts | 282° |
| 2026-05-04 17:49 | 40.64721 | 83.29291 | 31979 ft | 465 kts | 281° |
| 2026-05-04 17:49 | 40.66402 | 83.21046 | 31970 ft | 466 kts | 281° |
| 2026-05-04 17:50 | 40.68070 | 83.12829 | 31965 ft | 470 kts | 281° |
| 2026-05-04 17:50 | 40.69746 | 83.04544 | 31969 ft | 468 kts | 282° |
| 2026-05-04 17:51 | 40.71415 | 82.96253 | 31952 ft | 471 kts | 281° |
| 2026-05-04 17:51 | 40.73084 | 82.87935 | 31971 ft | 469 kts | 282° |
| 2026-05-04 17:52 | 40.74744 | 82.79623 | 31955 ft | 470 kts | 282° |
| 2026-05-04 17:52 | 40.76392 | 82.71346 | 31958 ft | 471 kts | 282° |
| 2026-05-04 17:53 | 40.78052 | 82.62965 | 31961 ft | 471 kts | 282° |
| 2026-05-04 17:53 | 40.79693 | 82.54649 | 31960 ft | 473 kts | 283° |
| 2026-05-04 17:54 | 40.81342 | 82.46256 | 31955 ft | 473 kts | 283° |
| 2026-05-04 17:54 | 40.82985 | 82.37862 | 31960 ft | 474 kts | 283° |
| 2026-05-04 17:55 | 40.84612 | 82.29516 | 31966 ft | 474 kts | 283° |
| 2026-05-04 17:55 | 40.86241 | 82.21118 | 31960 ft | 476 kts | 283° |
| 2026-05-04 17:56 | 40.87880 | 82.12637 | 31954 ft | 474 kts | 283° |
| 2026-05-04 17:56 | 40.89491 | 82.04265 | 31973 ft | 475 kts | 283° |
| 2026-05-04 17:57 | 40.91119 | 81.95766 | 31973 ft | 476 kts | 283° |
| 2026-05-04 17:57 | 40.92727 | 81.87338 | 31977 ft | 476 kts | 283° |
| 2026-05-04 17:58 | 40.94340 | 81.78847 | 31976 ft | 478 kts | 283° |
| 2026-05-04 17:58 | 40.95945 | 81.70362 | 31977 ft | 477 kts | 283° |
| 2026-05-04 17:59 | 40.97628 | 81.61938 | 31983 ft | 477 kts | 286° |
| 2026-05-04 18:00 | 41.00525 | 81.49299 | 31989 ft | 479 kts | 287° |
| 2026-05-04 18:00 | 41.02436 | 81.40863 | 31976 ft | 478 kts | 287° |
| 2026-05-04 18:01 | 41.04314 | 81.32509 | 31985 ft | 480 kts | 285° |
| 2026-05-04 18:01 | 41.06197 | 81.24088 | 32004 ft | 478 kts | 286° |
| 2026-05-04 18:02 | 41.09013 | 81.11412 | 32021 ft | 479 kts | 286° |
| 2026-05-04 18:02 | 41.10860 | 81.03056 | 32019 ft | 480 kts | 286° |
| 2026-05-04 18:03 | 41.12722 | 80.94594 | 32039 ft | 479 kts | 285° |
| 2026-05-04 18:03 | 41.14575 | 80.86145 | 32052 ft | 478 kts | 285° |
| 2026-05-04 18:04 | 41.16416 | 80.77710 | 32091 ft | 477 kts | 285° |
| 2026-05-04 18:05 | 41.19163 | 80.65070 | 32066 ft | 477 kts | 285° |
| 2026-05-04 18:05 | 41.20990 | 80.56622 | 32084 ft | 478 kts | 285° |
| 2026-05-04 18:06 | 41.23705 | 80.44004 | 32140 ft | 476 kts | 285° |
| 2026-05-04 18:06 | 41.25514 | 80.35552 | 32151 ft | 475 kts | 285° |
| 2026-05-04 18:07 | 41.27280 | 80.27248 | 32161 ft | 475 kts | 285° |
| 2026-05-04 18:07 | 41.29063 | 80.18788 | 32205 ft | 474 kts | 285° |
| 2026-05-04 18:08 | 41.30825 | 80.10402 | 32190 ft | 476 kts | 285° |
| 2026-05-04 18:08 | 41.32597 | 80.01933 | 32284 ft | 474 kts | 285° |
| 2026-05-04 18:09 | 41.36102 | 79.85078 | 32262 ft | 474 kts | 284° |
| 2026-05-04 18:10 | 41.37854 | 79.76606 | 32252 ft | 474 kts | 285° |
| 2026-05-04 18:10 | 41.39590 | 79.68175 | 32262 ft | 474 kts | 284° |
| 2026-05-04 18:11 | 41.41319 | 79.59743 | 32265 ft | 474 kts | 284° |
| 2026-05-04 18:11 | 41.43049 | 79.51269 | 32325 ft | 475 kts | 285° |
| 2026-05-04 18:12 | 41.44767 | 79.42825 | 32359 ft | 475 kts | 285° |
| 2026-05-04 18:12 | 41.46481 | 79.34363 | 32376 ft | 477 kts | 284° |
| 2026-05-04 18:13 | 41.48190 | 79.25888 | 32376 ft | 476 kts | 284° |
| 2026-05-04 18:14 | 41.50756 | 79.13100 | 32373 ft | 477 kts | 284° |
| 2026-05-04 18:14 | 41.52463 | 79.04546 | 32428 ft | 479 kts | 284° |
| 2026-05-04 18:15 | 41.55838 | 78.87517 | 32417 ft | 474 kts | 283° |
| 2026-05-04 18:16 | 41.56459 | 78.78863 | 32443 ft | 473 kts | 268° |
| 2026-05-04 18:16 | 41.56219 | 78.70061 | 32438 ft | 474 kts | 267° |
| 2026-05-04 18:17 | 41.55806 | 78.56959 | 32437 ft | 474 kts | 267° |
| 2026-05-04 18:18 | 41.55366 | 78.43819 | 32462 ft | 474 kts | 267° |
| 2026-05-04 18:18 | 41.55063 | 78.35101 | 32488 ft | 473 kts | 267° |
| 2026-05-04 18:19 | 41.54596 | 78.22044 | 32484 ft | 473 kts | 266° |
| 2026-05-04 18:19 | 41.54275 | 78.13300 | 32490 ft | 473 kts | 266° |
| 2026-05-04 18:20 | 41.53949 | 78.04607 | 32509 ft | 473 kts | 266° |
| 2026-05-04 18:20 | 41.53615 | 77.95885 | 32511 ft | 473 kts | 266° |
| 2026-05-04 18:21 | 41.53273 | 77.87146 | 32515 ft | 473 kts | 266° |
| 2026-05-04 18:21 | 41.52924 | 77.78371 | 32506 ft | 473 kts | 266° |
| 2026-05-04 18:22 | 41.52571 | 77.69689 | 32511 ft | 473 kts | 266° |
| 2026-05-04 18:22 | 41.52209 | 77.60938 | 32501 ft | 473 kts | 266° |
| 2026-05-04 18:23 | 41.51842 | 77.52218 | 32498 ft | 472 kts | 266° |
| 2026-05-04 18:23 | 41.51467 | 77.43474 | 32492 ft | 473 kts | 266° |
| 2026-05-04 18:24 | 41.51086 | 77.34740 | 32488 ft | 474 kts | 266° |
| 2026-05-04 18:24 | 41.50700 | 77.26047 | 32483 ft | 472 kts | 266° |
| 2026-05-04 18:25 | 41.50306 | 77.17323 | 32473 ft | 473 kts | 266° |
| 2026-05-04 18:25 | 41.49905 | 77.08600 | 32472 ft | 473 kts | 266° |
| 2026-05-04 18:26 | 41.49499 | 76.99891 | 32468 ft | 474 kts | 266° |
| 2026-05-04 18:26 | 41.49082 | 76.91104 | 32462 ft | 474 kts | 266° |
| 2026-05-04 18:27 | 41.48662 | 76.82393 | 32474 ft | 476 kts | 266° |
| 2026-05-04 18:27 | 41.48233 | 76.73635 | 32482 ft | 475 kts | 266° |
| 2026-05-04 18:28 | 41.47797 | 76.64880 | 32470 ft | 474 kts | 266° |
| 2026-05-04 18:28 | 41.47355 | 76.56129 | 32473 ft | 475 kts | 265° |
| 2026-05-04 18:29 | 41.46905 | 76.47353 | 32502 ft | 475 kts | 265° |
| 2026-05-04 18:29 | 41.46448 | 76.38567 | 32502 ft | 477 kts | 265° |
| 2026-05-04 18:30 | 41.45754 | 76.25473 | 32509 ft | 478 kts | 265° |
| 2026-05-04 18:31 | 41.45277 | 76.16631 | 32522 ft | 477 kts | 265° |
| 2026-05-04 18:31 | 41.44795 | 76.07827 | 32518 ft | 478 kts | 265° |
| 2026-05-04 18:32 | 41.44306 | 75.99016 | 32519 ft | 479 kts | 265° |
| 2026-05-04 18:32 | 41.43810 | 75.90196 | 32525 ft | 479 kts | 265° |
| 2026-05-04 18:33 | 41.43308 | 75.81389 | 32518 ft | 479 kts | 265° |
| 2026-05-04 18:33 | 41.42797 | 75.72549 | 32506 ft | 479 kts | 264° |
| 2026-05-04 18:34 | 41.42282 | 75.63731 | 32501 ft | 478 kts | 265° |
| 2026-05-04 18:34 | 41.41763 | 75.54969 | 32492 ft | 479 kts | 264° |
| 2026-05-04 18:35 | 41.41235 | 75.46159 | 32492 ft | 478 kts | 265° |
| 2026-05-04 18:35 | 41.40698 | 75.37324 | 32487 ft | 479 kts | 265° |
| 2026-05-04 18:36 | 41.40161 | 75.28594 | 32481 ft | 479 kts | 264° |
| 2026-05-04 18:36 | 41.39615 | 75.19825 | 32474 ft | 478 kts | 264° |
| 2026-05-04 18:37 | 41.39060 | 75.11031 | 32474 ft | 479 kts | 264° |
| 2026-05-04 18:37 | 41.38499 | 75.02233 | 32483 ft | 478 kts | 264° |
| 2026-05-04 18:38 | 41.37928 | 74.93399 | 32473 ft | 478 kts | 264° |
| 2026-05-04 18:38 | 41.37354 | 74.84614 | 32475 ft | 479 kts | 264° |
| 2026-05-04 18:39 | 41.36774 | 74.75841 | 32470 ft | 478 kts | 264° |
| 2026-05-04 18:39 | 41.36183 | 74.67024 | 32467 ft | 479 kts | 264° |
| 2026-05-04 18:40 | 41.35588 | 74.58225 | 32466 ft | 479 kts | 264° |
| 2026-05-04 18:40 | 41.34989 | 74.49476 | 32462 ft | 479 kts | 264° |
| 2026-05-04 18:41 | 41.34377 | 74.40642 | 32462 ft | 479 kts | 263° |
| 2026-05-04 18:41 | 41.33764 | 74.31883 | 32449 ft | 479 kts | 263° |
| 2026-05-04 18:42 | 41.33138 | 74.23040 | 32437 ft | 480 kts | 263° |
| 2026-05-04 18:42 | 41.32510 | 74.14271 | 32438 ft | 480 kts | 263° |
| 2026-05-04 18:43 | 41.31875 | 74.05489 | 32435 ft | 480 kts | 263° |
| 2026-05-04 18:43 | 41.31286 | 73.96676 | 32434 ft | 480 kts | 265° |
| 2026-05-04 18:44 | 41.30939 | 73.87802 | 32432 ft | 482 kts | 265° |
| 2026-05-04 18:44 | 41.30582 | 73.78953 | 32425 ft | 482 kts | 265° |
| 2026-05-04 18:45 | 41.30206 | 73.70039 | 32408 ft | 483 kts | 265° |
| 2026-05-04 18:45 | 41.29820 | 73.61158 | 32392 ft | 484 kts | 265° |
| 2026-05-04 18:46 | 41.29425 | 73.52267 | 32383 ft | 483 kts | 265° |
| 2026-05-04 18:46 | 41.29020 | 73.43360 | 32373 ft | 483 kts | 265° |
| 2026-05-04 18:47 | 41.28608 | 73.34452 | 32351 ft | 484 kts | 265° |
| 2026-05-04 18:47 | 41.28190 | 73.25570 | 32338 ft | 485 kts | 265° |
| 2026-05-04 18:48 | 41.27766 | 73.16703 | 32324 ft | 485 kts | 265° |
| 2026-05-04 18:48 | 41.27331 | 73.07782 | 32290 ft | 485 kts | 265° |
| 2026-05-04 18:49 | 41.26889 | 72.98827 | 32264 ft | 485 kts | 265° |
| 2026-05-04 18:49 | 41.26442 | 72.89929 | 32245 ft | 485 kts | 265° |
| 2026-05-04 18:50 | 41.25988 | 72.81036 | 32262 ft | 485 kts | 265° |
| 2026-05-04 18:50 | 41.25528 | 72.72137 | 32271 ft | 486 kts | 265° |
| 2026-05-04 18:51 | 41.25059 | 72.63226 | 32264 ft | 486 kts | 265° |
| 2026-05-04 18:51 | 41.24580 | 72.54296 | 32263 ft | 485 kts | 265° |
| 2026-05-04 18:52 | 41.24088 | 72.45342 | 32239 ft | 486 kts | 265° |
| 2026-05-04 18:52 | 41.23593 | 72.36475 | 32237 ft | 485 kts | 265° |
| 2026-05-04 18:53 | 41.23093 | 72.27612 | 32218 ft | 485 kts | 264° |
| 2026-05-04 18:53 | 41.22582 | 72.18671 | 32205 ft | 485 kts | 264° |
| 2026-05-04 18:54 | 41.22074 | 72.09764 | 32201 ft | 485 kts | 265° |
| 2026-05-04 18:54 | 41.21562 | 72.00899 | 32214 ft | 485 kts | 265° |
| 2026-05-04 18:55 | 41.21039 | 71.91975 | 32204 ft | 486 kts | 265° |
| 2026-05-04 18:55 | 41.20244 | 71.78616 | 32208 ft | 485 kts | 265° |
| 2026-05-04 18:56 | 41.19700 | 71.69700 | 32214 ft | 485 kts | 264° |
| 2026-05-04 18:56 | 41.19152 | 71.60819 | 32238 ft | 485 kts | 264° |
| 2026-05-04 18:57 | 41.18593 | 71.51892 | 32329 ft | 495 kts | 264° |
| 2026-05-04 18:57 | 41.18304 | 71.47323 | 32879 ft | 494 kts | 265° |
| 2026-05-04 18:57 | 41.18019 | 71.42831 | 33708 ft | 486 kts | 266° |
| 2026-05-04 18:58 | 41.17737 | 71.38423 | 34177 ft | 487 kts | 266° |
| 2026-05-04 18:58 | 41.17453 | 71.33995 | 34235 ft | 487 kts | 265° |
| 2026-05-04 18:58 | 41.16872 | 71.25044 | 34261 ft | 480 kts | 265° |
| 2026-05-04 18:59 | 41.16299 | 71.16306 | 34282 ft | 478 kts | 265° |
| 2026-05-04 18:59 | 41.15716 | 71.07529 | 34273 ft | 478 kts | 265° |
| 2026-05-04 19:00 | 41.15127 | 70.98772 | 34299 ft | 478 kts | 265° |
| 2026-05-04 19:00 | 41.14533 | 70.90030 | 34321 ft | 478 kts | 265° |
| 2026-05-04 19:01 | 41.13930 | 70.81252 | 34320 ft | 478 kts | 266° |
| 2026-05-04 19:01 | 41.13320 | 70.72479 | 34312 ft | 479 kts | 266° |
| 2026-05-04 19:02 | 41.12703 | 70.63708 | 34313 ft | 480 kts | 266° |
| 2026-05-04 19:02 | 41.12081 | 70.54980 | 34306 ft | 478 kts | 266° |
| 2026-05-04 19:03 | 41.11451 | 70.46230 | 34311 ft | 477 kts | 266° |
| 2026-05-04 19:03 | 41.10818 | 70.37530 | 34292 ft | 478 kts | 266° |
| 2026-05-04 19:04 | 41.10173 | 70.28767 | 34300 ft | 479 kts | 266° |
| 2026-05-04 19:04 | 41.10187 | 70.20064 | 34291 ft | 476 kts | 278° |
| 2026-05-04 19:05 | 41.10955 | 70.11365 | 34282 ft | 476 kts | 278° |
| 2026-05-04 19:05 | 41.11723 | 70.02680 | 34284 ft | 475 kts | 278° |
| 2026-05-04 19:06 | 41.12483 | 69.93975 | 34266 ft | 474 kts | 278° |
| 2026-05-04 19:06 | 41.13231 | 69.85314 | 34251 ft | 475 kts | 278° |
| 2026-05-04 19:07 | 41.13971 | 69.76672 | 34229 ft | 474 kts | 279° |
| 2026-05-04 19:07 | 41.14705 | 69.67998 | 34200 ft | 474 kts | 279° |
| 2026-05-04 19:08 | 41.15430 | 69.59364 | 34175 ft | 475 kts | 279° |
| 2026-05-04 19:08 | 41.16154 | 69.50652 | 34140 ft | 474 kts | 279° |
| 2026-05-04 19:09 | 41.16864 | 69.42029 | 34125 ft | 474 kts | 279° |
| 2026-05-04 19:09 | 41.17544 | 69.33697 | 34125 ft | 474 kts | 278° |
| 2026-05-04 19:10 | 41.18263 | 69.24802 | 34116 ft | 473 kts | 278° |
| 2026-05-04 19:10 | 41.18737 | 69.16093 | 34127 ft | 476 kts | 274° |
| 2026-05-04 19:11 | 41.18919 | 69.07333 | 34101 ft | 475 kts | 275° |
| 2026-05-04 19:11 | 41.19114 | 68.98572 | 34115 ft | 475 kts | 275° |
| 2026-05-04 19:12 | 41.19845 | 68.85594 | 34109 ft | 471 kts | 280° |
| 2026-05-04 19:13 | 41.20666 | 68.77031 | 34095 ft | 470 kts | 281° |
| 2026-05-04 19:13 | 41.21487 | 68.68400 | 34096 ft | 470 kts | 280° |
| 2026-05-04 19:14 | 41.22294 | 68.59830 | 34091 ft | 471 kts | 280° |
| 2026-05-04 19:14 | 41.23093 | 68.51276 | 34085 ft | 471 kts | 280° |
| 2026-05-04 19:15 | 41.23893 | 68.42644 | 34080 ft | 469 kts | 280° |
| 2026-05-04 19:15 | 41.24649 | 68.34416 | 34085 ft | 469 kts | 279° |
| 2026-05-04 19:16 | 41.25449 | 68.25635 | 34083 ft | 469 kts | 279° |
| 2026-05-04 19:16 | 41.26226 | 68.17028 | 34081 ft | 469 kts | 279° |
| 2026-05-04 19:17 | 41.26993 | 68.08465 | 34064 ft | 468 kts | 279° |
| 2026-05-04 19:17 | 41.27752 | 67.99927 | 34081 ft | 468 kts | 279° |
| 2026-05-04 19:18 | 41.28521 | 67.91370 | 34066 ft | 467 kts | 282° |
| 2026-05-04 19:18 | 41.29843 | 67.82975 | 34078 ft | 466 kts | 284° |
| 2026-05-04 19:19 | 41.31198 | 67.74580 | 34082 ft | 466 kts | 284° |
| 2026-05-04 19:19 | 41.32524 | 67.66185 | 34082 ft | 466 kts | 284° |
| 2026-05-04 19:20 | 41.33833 | 67.57770 | 34078 ft | 466 kts | 284° |
| 2026-05-04 19:20 | 41.35130 | 67.49350 | 34083 ft | 466 kts | 284° |
| 2026-05-04 19:21 | 41.36415 | 67.40932 | 34077 ft | 466 kts | 284° |
| 2026-05-04 19:21 | 41.37680 | 67.32600 | 34070 ft | 465 kts | 283° |
| 2026-05-04 19:22 | 41.38951 | 67.24171 | 34071 ft | 467 kts | 283° |
| 2026-05-04 19:22 | 41.40218 | 67.15725 | 34073 ft | 468 kts | 283° |
| 2026-05-04 19:23 | 41.41485 | 67.07228 | 34069 ft | 467 kts | 283° |
| 2026-05-04 19:23 | 41.42741 | 66.98759 | 34068 ft | 468 kts | 283° |
| 2026-05-04 19:24 | 41.43989 | 66.90303 | 34069 ft | 467 kts | 282° |
| 2026-05-04 19:24 | 41.45224 | 66.81885 | 34066 ft | 466 kts | 282° |
| 2026-05-04 19:25 | 41.46464 | 66.73389 | 34070 ft | 466 kts | 282° |
| 2026-05-04 19:25 | 41.47685 | 66.64981 | 34065 ft | 465 kts | 282° |
| 2026-05-04 19:26 | 41.48274 | 66.56401 | 34061 ft | 469 kts | 272° |
| 2026-05-04 19:26 | 41.48308 | 66.47714 | 34052 ft | 468 kts | 272° |
| 2026-05-04 19:27 | 41.48328 | 66.39072 | 34054 ft | 468 kts | 272° |